Terminal Aerodrome Forecast
Issued by NWS

Home | Current Version | Previous Version | Text Only | Print | Product List | Glossary On
Versions: 1 2 3 4 5 6 7 8 9 10 11 12 13 14 15 16 17 18 19 20
713
FTUS46 KMFR 202109 CCB
TAFRBG
TAF COR
KRBG 202109Z 2021/2118 02010KT P6SM -SHRA SCT040 BKN070
      TEMPO 2021/2023 2SM +SHRA BKN025
     FM210800 17010KT 3SM -RA BR OVC020
     FM211200 16015KT 2SM RA SCT020 OVC035=

USA.gov is the U.S. government's official web portal to all federal, state and local government web resources and services.